Time;durP1;ratioP1;P1;durP2;ratioP2;P2;SDS_P1;SDS_P2;PMS_P1;PMS_P2;Temp;Humidity;BMP_temperature;BMP_pressure;BME280_temperature;BME280_humidity;BME280_pressure;Samples;Min_cycle;Max_cycle;Signal;HPM_P1;HPM_P2
2023/08/19 00:00:45;;;;;;;;;17.80;15.80;;;;;26.24;60.95;100862.09;1989422;28;2826354;-75
2023/08/19 00:01:56;;;;;;;;;12.60;12.20;;;;;26.22;60.48;100854.19;2004629;28;2805503;-75
2023/08/19 00:03:08;;;;;;;;;16.33;16.00;;;;;26.24;60.46;100857.56;1987304;28;2824194;-76
2023/08/19 00:04:19;;;;;;;;;17.00;14.33;;;;;26.24;60.68;100865.66;1982449;28;3545080;-74
2023/08/19 00:05:32;;;;;;;;;14.43;14.43;;;;;26.24;60.81;100860.28;2001065;28;3525214;-75
2023/08/19 00:06:43;;;;;;;;;14.60;14.60;;;;;26.25;60.49;100861.13;1988857;28;2816910;-75
2023/08/19 00:07:54;;;;;;;;;16.60;16.60;;;;;26.24;60.37;100856.72;2000419;28;3560669;-75
2023/08/19 00:09:08;;;;;;;;;13.60;13.60;;;;;26.24;60.32;100857.56;2006537;28;3523201;-75
2023/08/19 00:10:20;;;;;;;;;16.00;15.67;;;;;26.24;60.40;100862.09;1984329;28;3557571;-75
2023/08/19 00:11:32;;;;;;;;;17.40;15.60;;;;;26.25;60.36;100869.19;2004377;28;3543943;-75
2023/08/19 00:12:43;;;;;;;;;16.20;13.60;;;;;26.25;60.42;100861.13;2002639;28;3533588;-75
2023/08/19 00:13:56;;;;;;;;;17.00;15.00;;;;;26.24;60.19;100862.09;2001189;28;3546059;-75
2023/08/19 00:15:07;;;;;;;;;18.80;18.00;;;;;26.24;60.25;100862.97;1994710;28;3563747;-75
2023/08/19 00:16:19;;;;;;;;;14.00;13.33;;;;;26.24;60.48;100865.66;1991724;28;3536016;-76
2023/08/19 00:17:31;;;;;;;;;18.00;18.00;;;;;26.24;60.96;100868.34;1999738;28;3566954;-76
2023/08/19 00:18:42;;;;;;;;;20.20;16.00;;;;;26.24;60.92;100868.34;1964965;28;2836774;-75
2023/08/19 00:19:54;;;;;;;;;15.67;15.67;;;;;26.23;60.58;100866.66;2000656;28;3544998;-75
2023/08/19 00:21:05;;;;;;;;;14.33;14.33;;;;;26.25;60.27;100877.28;2000968;28;3528420;-75
2023/08/19 00:22:17;;;;;;;;;17.00;15.00;;;;;26.24;60.22;100876.44;1999976;28;3541924;-73
2023/08/19 00:23:29;;;;;;;;;15.80;14.60;;;;;26.24;60.14;100875.56;2004939;28;3539782;-74
2023/08/19 00:24:41;;;;;;;;;16.60;16.60;;;;;26.23;60.37;100874.72;2000306;28;3564817;-71
2023/08/19 00:25:53;;;;;;;;;14.40;13.20;;;;;26.24;60.48;100875.56;2006370;28;3524153;-71
2023/08/19 00:27:05;;;;;;;;;15.60;15.00;;;;;26.25;60.15;100879.97;2001841;28;3536676;-70
2023/08/19 00:28:17;;;;;;;;;20.00;17.33;;;;;26.24;60.20;100881.81;2004512;28;3571093;-71
2023/08/19 00:29:29;;;;;;;;;16.20;16.20;;;;;26.24;60.56;100887.19;1982050;28;3568965;-74
2023/08/19 00:30:41;;;;;;;;;16.60;16.60;;;;;26.24;60.39;100887.19;1971879;28;3566329;-74
2023/08/19 00:31:53;;;;;;;;;18.60;15.80;;;;;26.24;61.36;100881.81;1982932;28;3553329;-74
2023/08/19 00:33:04;;;;;;;;;15.00;14.00;;;;;26.24;60.50;100887.19;2006561;28;3528717;-74
2023/08/19 00:34:16;;;;;;;;;16.00;15.20;;;;;26.24;60.78;100897.97;2005921;28;3543948;-72
2023/08/19 00:35:28;;;;;;;;;16.67;15.00;;;;;26.25;60.94;100902.34;2000995;28;3548532;-73
2023/08/19 00:36:40;;;;;;;;;12.33;11.33;;;;;26.24;60.75;100897.97;1972863;28;3509630;-73
2023/08/19 00:37:52;;;;;;;;;16.20;14.80;;;;;26.24;60.12;100897.97;2005110;28;3536657;-72
2023/08/19 00:39:04;;;;;;;;;16.67;16.33;;;;;26.25;60.71;100888.06;1999663;28;3559663;-72
2023/08/19 00:40:16;;;;;;;;;17.40;17.40;;;;;26.25;60.27;100901.53;1972880;28;3566876;-72
2023/08/19 00:41:27;;;;;;;;;10.50;10.50;;;;;26.24;60.28;100889.91;1999410;28;2794037;-73
2023/08/19 00:42:38;;;;;;;;;15.40;15.40;;;;;26.24;60.43;100892.59;1986200;28;3552666;-72
2023/08/19 00:43:50;;;;;;;;;14.33;13.33;;;;;26.24;60.37;100887.19;2000350;28;3525250;-73
2023/08/19 00:45:02;;;;;;;;;15.67;15.67;;;;;26.24;60.47;100892.59;2000116;28;3541968;-73
2023/08/19 00:46:14;;;;;;;;;13.60;13.20;;;;;26.24;60.39;100892.59;2002904;28;3513744;-74
2023/08/19 00:47:26;;;;;;;;;16.60;15.60;;;;;26.25;61.08;100899.66;2004907;28;3564156;-74
2023/08/19 00:48:39;;;;;;;;;16.40;15.60;;;;;26.25;60.97;100893.44;1996794;28;3541877;-74
2023/08/19 00:49:49;;;;;;;;;20.50;18.00;;;;;26.24;60.72;100891.75;1986104;28;2825343;-74
2023/08/19 00:51:02;;;;;;;;;16.40;16.40;;;;;26.25;60.62;100890.75;1983234;28;3561016;-74
2023/08/19 00:52:14;;;;;;;;;16.33;13.00;;;;;26.24;60.59;100889.91;1986846;28;2805439;-74
2023/08/19 00:53:25;;;;;;;;;15.00;15.00;;;;;26.25;61.12;100890.75;1980604;28;3531475;-74
2023/08/19 00:54:37;;;;;;;;;17.00;15.00;;;;;26.25;60.77;100888.88;1989581;28;3549187;-74
2023/08/19 00:55:49;;;;;;;;;17.00;15.60;;;;;26.25;61.28;100886.19;2004878;28;3552309;-74
2023/08/19 00:57:01;;;;;;;;;16.60;15.60;;;;;26.25;61.08;100894.25;2004431;28;3548198;-73
2023/08/19 00:58:13;;;;;;;;;18.00;18.00;;;;;26.25;61.15;100888.88;2002851;28;3575200;-74
2023/08/19 00:59:26;;;;;;;;;16.20;14.20;;;;;26.25;61.41;100888.88;1980531;28;3542899;-74
2023/08/19 01:00:38;;;;;;;;;16.00;16.00;;;;;26.25;60.77;100885.38;1981187;28;3540851;-74
2023/08/19 01:01:48;;;;;;;;;18.00;14.00;;;;;26.25;60.70;100885.38;1985075;28;2816954;-74
2023/08/19 01:03:00;;;;;;;;;16.60;15.40;;;;;26.25;60.62;100886.19;1979804;28;3556456;-74
2023/08/19 01:04:12;;;;;;;;;16.00;15.00;;;;;26.25;61.11;100880.81;1986033;28;2815900;-75
2023/08/19 01:05:33;;;;;;;;;20.00;17.67;;;;;26.26;61.47;100885.19;1981536;28;3573149;-75
2023/08/19 01:07:07;;;;;;;;;19.00;16.00;;;;;26.25;61.40;100885.38;1958769;28;3560654;-75
2023/08/19 01:08:26;;;;;;;;;14.00;14.00;;;;;26.26;60.90;100893.28;1955134;28;2792292;-75
2023/08/19 01:09:55;;;;;;;;;17.00;17.00;;;;;26.24;60.98;100887.19;1959689;28;3573220;-75
2023/08/19 01:11:38;;;;;;;;;16.33;15.67;;;;;26.26;61.35;100889.72;1965968;28;3562709;-75
2023/08/19 01:13:03;;;;;;;;;15.00;15.00;;;;;26.25;60.78;100894.25;1977130;28;3530469;-75
2023/08/19 01:14:53;;;;;;;;;17.00;16.00;;;;;26.25;61.17;100891.56;1985054;28;3555430;-75
2023/08/19 01:16:11;;;;;;;;;20.67;19.00;;;;;26.25;61.09;100894.25;1986845;28;3567930;-72
2023/08/19 01:17:28;;;;;;;;;18.67;16.67;;;;;26.25;60.82;100905.03;1959266;28;3568971;-73
2023/08/19 01:18:39;;;;;;;;;18.67;17.00;;;;;26.25;60.78;100904.22;1959409;28;3568991;-72
2023/08/19 01:19:53;;;;;;;;;17.67;15.00;;;;;26.25;60.98;100906.91;1971996;28;3552332;-72
2023/08/19 01:21:05;;;;;;;;;18.67;17.33;;;;;26.25;60.94;100905.03;1982725;28;3562753;-72
2023/08/19 01:22:24;;;;;;;;;19.00;19.00;;;;;26.25;61.31;100910.44;1961380;28;2837754;-72
2023/08/19 01:23:42;;;;;;;;;19.00;17.67;;;;;26.26;61.50;100908.59;1959550;28;3568978;-72
2023/08/19 01:24:54;;;;;;;;;18.00;17.67;;;;;26.25;61.17;100906.91;1959369;28;3565874;-72
2023/08/19 01:26:06;;;;;;;;;16.00;15.00;;;;;26.26;60.63;100909.44;1968958;28;3549203;-72
2023/08/19 01:27:23;;;;;;;;;17.67;17.00;;;;;26.26;60.71;100909.44;1974181;28;3564848;-70
2023/08/19 01:28:34;;;;;;;;;19.33;16.33;;;;;26.25;61.11;100907.75;1958925;28;3573263;-70
2023/08/19 01:29:47;;;;;;;;;19.00;17.67;;;;;26.25;60.92;100907.75;1968129;28;3571439;-70
2023/08/19 01:30:59;;;;;;;;;18.67;17.67;;;;;26.24;60.57;100906.06;1962728;28;3556873;-70
2023/08/19 01:32:09;;;;;;;;;15.00;14.50;;;;;26.25;60.83;100910.44;1962044;28;2806517;-70
2023/08/19 01:33:22;;;;;;;;;15.67;14.67;;;;;26.26;61.12;100916.66;1980045;28;3536731;-70
2023/08/19 01:34:33;;;;;;;;;15.67;15.67;;;;;26.26;61.27;100916.66;1990318;28;3549204;-70
2023/08/19 01:35:53;;;;;;;;;17.00;17.00;;;;;26.25;60.73;100915.81;1976832;28;3562733;-70
2023/08/19 01:37:07;;;;;;;;;18.50;17.50;;;;;26.25;61.41;100926.59;1960959;28;2837765;-70
2023/08/19 01:38:31;;;;;;;;;18.00;16.50;;;;;26.26;61.28;100917.53;1963553;28;2833618;-70
2023/08/19 01:39:44;;;;;;;;;17.33;16.33;;;;;26.26;61.34;100916.66;1959062;28;3569341;-70
2023/08/19 01:40:57;;;;;;;;;19.00;17.33;;;;;26.25;60.84;100921.22;1960797;28;3567941;-70
2023/08/19 01:42:09;;;;;;;;;19.00;16.00;;;;;26.25;61.38;100921.22;1961688;28;2820147;-69
2023/08/19 01:43:19;;;;;;;;;16.50;15.50;;;;;26.26;60.63;100925.59;1961834;28;2821116;-69
2023/08/19 01:44:32;;;;;;;;;15.33;15.00;;;;;26.25;61.15;100929.28;1961812;28;3532501;-70
2023/08/19 01:45:44;;;;;;;;;17.00;15.67;;;;;26.25;61.35;100926.59;1986611;28;2820003;-70
2023/08/19 01:46:55;;;;;;;;;21.00;19.33;;;;;26.25;61.22;100931.97;1981060;28;3575229;-70
2023/08/19 01:48:07;;;;;;;;;15.67;14.00;;;;;26.26;61.53;100928.31;1977683;28;3526276;-70
2023/08/19 01:49:19;;;;;;;;;15.00;13.40;;;;;26.25;60.80;100929.28;1999533;28;3526739;-70
2023/08/19 01:50:31;;;;;;;;;17.60;15.80;;;;;26.25;60.70;100923.06;2005925;28;3542937;-70
2023/08/19 01:51:43;;;;;;;;;14.20;13.80;;;;;26.26;61.32;100935.53;2002978;28;3530425;-70
2023/08/19 01:52:55;;;;;;;;;19.20;17.00;;;;;26.26;60.85;100933.69;2002003;28;3566911;-70
2023/08/19 01:54:06;;;;;;;;;19.00;17.00;;;;;26.26;61.54;100931.00;1997193;28;3572096;-70
2023/08/19 01:55:18;;;;;;;;;17.00;17.00;;;;;26.27;60.99;100937.22;1977027;28;3564813;-70
2023/08/19 01:56:30;;;;;;;;;15.60;15.20;;;;;26.27;61.17;100937.22;2003323;28;3541862;-71
2023/08/19 01:57:43;;;;;;;;;18.57;18.57;;;;;26.26;60.88;100936.38;1999686;28;3577634;-71
2023/08/19 01:58:56;;;;;;;;;17.33;15.67;;;;;26.27;61.65;100929.97;1976947;28;3556492;-71
2023/08/19 02:00:08;;;;;;;;;19.33;17.00;;;;;26.26;61.08;100941.78;1958207;28;3568998;-71
2023/08/19 02:01:19;;;;;;;;;14.00;14.00;;;;;26.26;61.36;100944.47;1970320;28;3533547;-70
2023/08/19 02:02:31;;;;;;;;;16.33;14.67;;;;;26.26;61.04;100944.47;2000682;28;3554395;-72
2023/08/19 02:03:43;;;;;;;;;13.60;11.60;;;;;26.26;61.46;100941.78;2006521;28;3522082;-72
2023/08/19 02:04:55;;;;;;;;;16.80;14.60;;;;;26.28;60.87;100947.00;2005394;28;3541884;-69
2023/08/19 02:06:07;;;;;;;;;16.67;16.67;;;;;26.27;61.53;100939.94;1998958;28;3557514;-69
2023/08/19 02:07:19;;;;;;;;;19.40;18.60;;;;;26.27;60.98;100939.94;1980773;28;3568970;-70
2023/08/19 02:08:30;;;;;;;;;17.40;16.40;;;;;26.27;61.04;100946.13;1988459;28;2836833;-69
2023/08/19 02:09:41;;;;;;;;;17.60;16.00;;;;;26.28;60.97;100945.16;1986509;28;2832638;-69
2023/08/19 02:10:52;;;;;;;;;12.00;12.00;;;;;26.27;61.51;100942.63;1986922;28;2799206;-70
2023/08/19 02:12:04;;;;;;;;;20.00;17.40;;;;;26.27;61.57;100945.31;1981453;28;3573460;-69
2023/08/19 02:13:16;;;;;;;;;20.00;18.00;;;;;26.28;61.40;100947.84;1964515;28;3573140;-69
2023/08/19 02:14:28;;;;;;;;;16.00;16.00;;;;;26.28;60.92;100952.38;1981654;28;3562689;-69
2023/08/19 02:15:40;;;;;;;;;17.20;16.40;;;;;26.27;61.34;100946.13;1982764;28;3558662;-69
2023/08/19 02:16:51;;;;;;;;;21.50;19.00;;;;;26.28;61.50;100952.38;1980045;28;2833926;-69
2023/08/19 02:18:03;;;;;;;;;18.33;16.00;;;;;26.27;60.83;100956.91;1978967;28;3559636;-69
2023/08/19 02:19:14;;;;;;;;;17.00;17.00;;;;;26.27;61.16;100956.91;1964938;28;3565155;-69
2023/08/19 02:20:26;;;;;;;;;19.33;18.00;;;;;26.27;61.54;100956.91;2001379;28;3572104;-69
2023/08/19 02:21:38;;;;;;;;;16.00;13.67;;;;;26.28;61.55;100952.38;1971439;28;3539122;-69
2023/08/19 02:22:50;;;;;;;;;18.00;17.00;;;;;26.28;60.82;100958.63;2001631;28;3568994;-69
2023/08/19 02:24:02;;;;;;;;;18.67;16.00;;;;;26.27;61.34;100950.69;1971781;28;3561692;-69
2023/08/19 02:25:14;;;;;;;;;13.00;13.00;;;;;26.27;61.50;100956.91;1976850;28;3525202;-69
2023/08/19 02:26:26;;;;;;;;;16.60;15.80;;;;;26.28;61.33;100957.78;2005702;28;3554355;-69
2023/08/19 02:27:40;;;;;;;;;16.60;16.40;;;;;26.28;60.73;100953.25;1983694;28;3552623;-69
2023/08/19 02:28:52;;;;;;;;;14.67;14.67;;;;;26.28;60.84;100958.63;1983591;28;3531453;-70
2023/08/19 02:30:06;;;;;;;;;22.75;20.25;;;;;26.28;61.27;100955.94;2002434;28;3590837;-70
2023/08/19 02:31:18;;;;;;;;;17.00;16.33;;;;;26.28;61.35;100955.94;1983671;28;3568990;-70
2023/08/19 02:32:29;;;;;;;;;21.00;19.00;;;;;26.28;60.76;100964.00;1977343;28;3572123;-70
2023/08/19 02:33:41;;;;;;;;;20.00;19.00;;;;;26.29;61.01;100956.78;1977023;28;3577363;-70
2023/08/19 02:34:53;;;;;;;;;18.20;15.60;;;;;26.28;60.76;100961.31;1973157;28;3550224;-70
2023/08/19 02:36:05;;;;;;;;;18.00;16.80;;;;;26.29;60.83;100959.47;2002553;28;3552270;-70
2023/08/19 02:37:17;;;;;;;;;16.20;15.40;;;;;26.28;60.99;100961.31;1996227;28;3553387;-70
2023/08/19 02:38:28;;;;;;;;;19.00;18.40;;;;;26.29;61.05;100968.41;1988704;28;2831541;-70
2023/08/19 02:39:41;;;;;;;;;19.00;16.86;;;;;26.28;61.30;100964.00;2000108;28;3574206;-71
2023/08/19 02:40:53;;;;;;;;;20.67;18.67;;;;;26.28;60.75;100974.78;1976696;28;3578382;-70
2023/08/19 02:42:05;;;;;;;;;19.33;18.00;;;;;26.29;60.59;100978.34;1973940;28;3571061;-70
2023/08/19 02:43:17;;;;;;;;;14.33;13.00;;;;;26.29;60.78;100983.72;1971603;28;3524216;-70
2023/08/19 02:44:29;;;;;;;;;19.33;16.33;;;;;26.29;60.95;100983.72;1983141;28;3560707;-69
2023/08/19 02:45:41;;;;;;;;;12.33;9.67;;;;;26.28;60.54;100980.19;1977189;28;2779000;-69
2023/08/19 02:46:52;;;;;;;;;19.00;17.33;;;;;26.28;61.26;100979.31;1984646;28;3567949;-69
2023/08/19 02:48:04;;;;;;;;;17.00;16.00;;;;;26.29;60.50;100986.41;2005759;28;3545420;-69
2023/08/19 02:49:16;;;;;;;;;17.67;15.67;;;;;26.28;60.91;100980.19;1992971;28;3548148;-69
2023/08/19 02:50:28;;;;;;;;;17.60;15.40;;;;;26.28;60.62;100973.94;2005256;28;3543971;-69
2023/08/19 02:51:39;;;;;;;;;18.50;17.00;;;;;26.29;60.55;100973.81;1995779;28;2506482;-69
2023/08/19 02:52:51;;;;;;;;;16.00;15.00;;;;;26.29;61.17;100976.50;1975697;28;3543960;-69
2023/08/19 02:54:03;;;;;;;;;18.60;18.00;;;;;26.29;60.43;100981.88;2004799;28;3553857;-69
2023/08/19 02:55:15;;;;;;;;;17.00;16.00;;;;;26.29;60.93;100981.88;1994290;28;3556519;-69
2023/08/19 02:56:27;;;;;;;;;17.33;15.33;;;;;26.29;61.04;100987.28;1975394;28;3540859;-69
2023/08/19 02:57:38;;;;;;;;;16.67;16.67;;;;;26.30;60.53;100977.31;1976520;28;3562726;-69
2023/08/19 02:58:49;;;;;;;;;20.00;18.00;;;;;26.30;60.54;100993.47;1963884;28;2835774;-69
2023/08/19 03:00:01;;;;;;;;;22.20;19.40;;;;;26.30;60.85;100994.34;2004331;28;3573125;-71
2023/08/19 03:01:13;;;;;;;;;17.40;16.40;;;;;26.30;60.58;101005.13;2001658;28;3562726;-71
2023/08/19 03:02:25;;;;;;;;;17.80;17.20;;;;;26.30;60.83;100999.72;2003598;28;3553402;-71
2023/08/19 03:03:36;;;;;;;;;18.60;16.20;;;;;26.30;60.93;101005.13;1987394;28;2831472;-72
2023/08/19 03:04:49;;;;;;;;;14.86;13.86;;;;;26.30;60.41;100999.72;2002766;28;3530411;-72
2023/08/19 03:06:02;;;;;;;;;17.00;16.33;;;;;26.29;60.23;100995.34;1987617;28;2823215;-72
2023/08/19 03:07:12;;;;;;;;;15.50;13.50;;;;;26.30;60.33;100993.47;1986746;28;2799222;-69
2023/08/19 03:08:23;;;;;;;;;16.60;16.60;;;;;26.30;60.80;100997.03;1968766;28;2827406;-70
2023/08/19 03:09:36;;;;;;;;;16.60;15.40;;;;;26.30;60.25;100996.19;2005049;28;3543949;-70
2023/08/19 03:10:47;;;;;;;;;17.00;17.00;;;;;26.31;60.63;101003.28;1994560;28;3563738;-71
2023/08/19 03:11:59;;;;;;;;;17.60;16.20;;;;;26.32;60.13;101001.44;2006607;28;3564800;-71
2023/08/19 03:13:11;;;;;;;;;17.20;15.80;;;;;26.30;60.45;100999.72;1982295;28;3552328;-71
2023/08/19 03:14:23;;;;;;;;;18.40;16.40;;;;;26.32;60.76;100999.59;2006356;28;3554384;-71
2023/08/19 03:15:38;;;;;;;;;19.33;16.33;;;;;26.30;60.48;100999.72;1978132;28;3567937;-71
2023/08/19 03:16:49;;;;;;;;;17.00;17.00;;;;;26.31;60.67;100997.88;1959249;28;3566895;-72
2023/08/19 03:18:01;;;;;;;;;17.33;15.33;;;;;26.32;60.32;100999.59;1963765;28;3550249;-72
2023/08/19 03:19:14;;;;;;;;;17.33;16.67;;;;;26.30;60.41;100994.34;1964172;28;3573165;-72
2023/08/19 03:20:27;;;;;;;;;17.00;17.00;;;;;26.32;60.81;101002.28;1960814;28;3567960;-73
2023/08/19 03:21:37;;;;;;;;;17.50;15.50;;;;;26.32;60.57;101006.81;1961561;28;2824253;-73
2023/08/19 03:22:49;;;;;;;;;18.20;18.20;;;;;26.32;60.50;101004.97;1979902;28;3559571;-72
2023/08/19 03:24:01;;;;;;;;;19.00;17.00;;;;;26.32;60.34;101009.53;1997887;28;3563115;-72
2023/08/19 03:25:13;;;;;;;;;18.00;16.33;;;;;26.33;60.33;101013.88;1974264;28;3558605;-72
2023/08/19 03:26:25;;;;;;;;;16.33;15.33;;;;;26.32;60.27;101001.44;1959025;28;3551350;-72
2023/08/19 03:27:37;;;;;;;;;15.80;14.00;;;;;26.32;60.34;101001.44;1972936;28;3538735;-72
2023/08/19 03:28:48;;;;;;;;;16.60;16.60;;;;;26.32;60.16;101009.53;1998102;28;3556467;-72
2023/08/19 03:30:00;;;;;;;;;20.00;19.20;;;;;26.32;60.65;101007.69;1988046;28;2832632;-71
2023/08/19 03:31:12;;;;;;;;;18.67;17.00;;;;;26.31;60.04;101008.66;1998785;28;3562781;-71
2023/08/19 03:32:23;;;;;;;;;17.00;16.33;;;;;26.32;60.43;101009.53;1963751;28;3556530;-71
2023/08/19 03:33:34;;;;;;;;;18.00;17.80;;;;;26.32;60.72;101004.13;1962579;28;2834716;-72
2023/08/19 03:34:46;;;;;;;;;17.60;17.60;;;;;26.32;60.63;101006.81;2003252;28;3564777;-71
2023/08/19 03:35:59;;;;;;;;;19.14;17.86;;;;;26.32;60.01;101009.53;1999218;28;3571090;-71
2023/08/19 03:37:11;;;;;;;;;18.20;17.40;;;;;26.30;59.83;101013.19;1965379;28;3568981;-70
2023/08/19 03:38:23;;;;;;;;;17.67;16.00;;;;;26.30;59.85;101010.50;1998836;28;3556518;-71
2023/08/19 03:39:34;;;;;;;;;18.20;15.80;;;;;26.32;60.37;101015.75;1964379;28;2828428;-71
2023/08/19 03:40:45;;;;;;;;;12.33;11.33;;;;;26.31;60.12;101014.06;2001006;28;2800347;-71
2023/08/19 03:41:57;;;;;;;;;18.00;15.67;;;;;26.32;60.09;101023.00;1982491;28;3552305;-71
2023/08/19 03:43:12;;;;;;;;;17.80;16.40;;;;;26.32;60.44;101014.91;1979353;28;3559147;-71
2023/08/19 03:44:23;;;;;;;;;16.00;16.00;;;;;26.32;59.82;101029.22;1983381;28;3558542;-71
2023/08/19 03:45:35;;;;;;;;;18.33;16.67;;;;;26.32;60.11;101023.84;1974753;28;3572198;-71
2023/08/19 03:46:47;;;;;;;;;17.67;16.67;;;;;26.32;59.96;101017.59;1964922;28;3570100;-71
2023/08/19 03:47:59;;;;;;;;;17.00;15.33;;;;;26.32;60.08;101028.38;1976834;28;3547158;-71
2023/08/19 03:49:11;;;;;;;;;16.80;14.80;;;;;26.32;60.28;101031.94;2005075;28;3536170;-71
2023/08/19 03:50:22;;;;;;;;;13.00;12.33;;;;;26.32;59.90;101031.94;1988343;28;3500284;-70
2023/08/19 03:51:34;;;;;;;;;18.67;17.00;;;;;26.33;60.06;101030.06;2000117;28;3567965;-71
2023/08/19 03:52:46;;;;;;;;;15.67;14.00;;;;;26.33;59.41;101035.44;1977318;28;3533560;-71
2023/08/19 03:53:58;;;;;;;;;14.00;13.00;;;;;26.33;60.12;101040.84;2000458;28;3535758;-71
2023/08/19 03:55:10;;;;;;;;;16.00;14.60;;;;;26.33;60.05;101032.75;2001545;28;3528319;-71
2023/08/19 03:56:22;;;;;;;;;16.67;15.67;;;;;26.33;59.50;101036.28;1997755;28;3551307;-71
2023/08/19 03:57:33;;;;;;;;;18.00;16.33;;;;;26.33;59.70;101043.53;1970478;28;3565869;-70
2023/08/19 03:58:46;;;;;;;;;15.00;15.00;;;;;26.32;59.42;101031.06;1975008;28;3533611;-70
2023/08/19 03:59:58;;;;;;;;;18.00;17.00;;;;;26.32;59.34;101045.41;1983392;28;3568488;-70
2023/08/19 04:01:09;;;;;;;;;16.20;16.20;;;;;26.33;60.05;101051.59;1981797;28;3548125;-70
2023/08/19 04:02:21;;;;;;;;;12.40;12.40;;;;;26.32;59.88;101056.16;2006798;28;3526259;-70
2023/08/19 04:03:34;;;;;;;;;14.00;14.00;;;;;26.33;59.19;101057.00;1997160;28;3528395;-70
2023/08/19 04:05:07;;;;;;;;;15.50;15.00;;;;;26.32;59.77;101058.88;1985352;28;2803381;-70
2023/08/19 04:06:19;;;;;;;;;14.33;14.33;;;;;26.32;59.11;101066.94;1959496;28;3529401;-70
2023/08/19 04:07:31;;;;;;;;;13.67;13.67;;;;;26.33;59.16;101062.38;1999976;28;3526299;-70
2023/08/19 04:08:41;;;;;;;;;19.00;17.50;;;;;26.32;59.69;101064.25;1985001;28;2835702;-69
2023/08/19 04:09:57;;;;;;;;;17.00;16.00;;;;;26.32;59.86;101071.47;1968895;28;3571074;-71
2023/08/19 04:11:08;;;;;;;;;16.67;16.67;;;;;26.33;58.99;101075.84;1958673;28;3561643;-70
2023/08/19 04:12:21;;;;;;;;;15.40;15.00;;;;;26.33;59.23;101076.72;1982899;28;3537687;-71
2023/08/19 04:13:33;;;;;;;;;17.00;15.00;;;;;26.33;59.17;101070.47;1987185;28;2811697;-71
2023/08/19 04:14:44;;;;;;;;;18.67;17.00;;;;;26.34;59.08;101081.13;1987421;28;2824566;-71
2023/08/19 04:16:03;;;;;;;;;13.00;11.00;;;;;26.33;59.19;101074.00;1981577;28;3537738;-70
2023/08/19 04:17:14;;;;;;;;;14.50;13.00;;;;;26.33;59.40;101082.09;1987168;28;2794034;-70
2023/08/19 04:18:25;;;;;;;;;17.00;16.00;;;;;26.32;59.14;101083.13;1986064;28;2823195;-71
2023/08/19 04:19:37;;;;;;;;;17.67;15.67;;;;;26.33;59.19;101083.94;1977517;28;3556483;-71
2023/08/19 04:20:48;;;;;;;;;14.00;13.50;;;;;26.33;58.87;101084.78;1987705;28;2799190;-71
2023/08/19 04:22:00;;;;;;;;;15.60;14.20;;;;;26.33;59.20;101090.19;1986237;28;3532541;-71
2023/08/19 04:23:12;;;;;;;;;16.20;15.60;;;;;26.33;58.80;101089.31;2006795;28;3550209;-71
2023/08/19 04:24:24;;;;;;;;;16.40;15.00;;;;;26.33;59.11;101089.31;1998375;28;3533532;-71
2023/08/19 04:25:35;;;;;;;;;17.00;13.80;;;;;26.33;58.66;101094.72;2002140;28;3547065;-70
2023/08/19 04:26:47;;;;;;;;;17.00;15.20;;;;;26.33;58.62;101100.09;2005099;28;3542899;-70
2023/08/19 04:27:59;;;;;;;;;16.40;14.40;;;;;26.33;58.96;101095.56;2003174;28;3542342;-71
2023/08/19 04:29:11;;;;;;;;;16.00;16.00;;;;;26.34;58.94;101094.59;2004378;28;3554380;-71
2023/08/19 04:30:23;;;;;;;;;12.20;12.20;;;;;26.34;58.60;101105.38;2003883;28;3530059;-70
2023/08/19 04:31:35;;;;;;;;;20.00;17.00;;;;;26.34;58.66;101113.44;1988468;28;3561698;-70
2023/08/19 04:32:47;;;;;;;;;15.60;14.60;;;;;26.35;58.75;101108.91;1980867;28;3538736;-71
2023/08/19 04:33:59;;;;;;;;;14.20;14.00;;;;;26.34;58.30;101112.59;2005955;28;3537688;-71
2023/08/19 04:35:11;;;;;;;;;13.00;11.50;;;;;26.34;58.57;101120.66;2000530;28;2793998;-71
2023/08/19 04:36:22;;;;;;;;;15.00;13.00;;;;;26.34;58.90;101112.59;1965170;28;2785701;-70
2023/08/19 04:37:33;;;;;;;;;16.40;15.60;;;;;26.34;58.45;101115.28;1996121;28;3542993;-71
2023/08/19 04:38:45;;;;;;;;;13.80;13.80;;;;;26.34;58.46;101118.84;2006605;28;3529397;-71
2023/08/19 04:39:57;;;;;;;;;14.00;14.00;;;;;26.35;58.35;101122.38;2004391;28;3531453;-71
2023/08/19 04:41:09;;;;;;;;;17.20;14.00;;;;;26.34;58.45;101118.84;2004211;28;3539789;-72
2023/08/19 04:42:21;;;;;;;;;14.00;12.00;;;;;26.35;58.17;101125.06;2000293;28;2787813;-72
2023/08/19 04:43:32;;;;;;;;;15.00;15.00;;;;;26.35;58.14;101130.47;1983044;28;3528386;-72
2023/08/19 04:44:44;;;;;;;;;14.00;12.00;;;;;26.34;58.67;101123.38;1999151;28;2790900;-72
2023/08/19 04:45:54;;;;;;;;;12.50;12.50;;;;;26.34;58.17;101126.06;1988009;28;2789871;-72
2023/08/19 04:47:06;;;;;;;;;15.33;15.00;;;;;26.34;58.76;101129.59;1997993;28;3533576;-72
2023/08/19 04:48:18;;;;;;;;;16.60;14.40;;;;;26.34;58.60;101129.59;2005529;28;3546023;-72
2023/08/19 04:49:30;;;;;;;;;14.00;12.80;;;;;26.35;58.15;101133.16;2005116;28;2778460;-72
2023/08/19 04:50:40;;;;;;;;;11.00;10.00;;;;;26.34;58.30;101129.59;1987805;28;2787708;-71
2023/08/19 04:51:52;;;;;;;;;14.00;13.00;;;;;26.34;58.44;101129.59;1979386;28;2788856;-71
2023/08/19 04:53:03;;;;;;;;;14.80;11.80;;;;;26.34;58.57;101139.53;1980567;28;2786701;-72
2023/08/19 04:54:15;;;;;;;;;14.00;11.67;;;;;26.34;57.85;101136.84;1987035;28;2812724;-73
2023/08/19 04:55:26;;;;;;;;;13.50;13.50;;;;;26.34;57.96;101137.69;1986077;28;2798133;-73
2023/08/19 04:56:38;;;;;;;;;15.00;14.33;;;;;26.34;58.24;101145.78;1960067;28;2806612;-71
2023/08/19 04:57:48;;;;;;;;;11.00;9.00;;;;;26.34;58.32;101147.63;1983182;28;2771122;-70
2023/08/19 04:59:00;;;;;;;;;13.00;12.80;;;;;26.34;57.74;101140.38;1979940;28;2797084;-70
2023/08/19 05:00:12;;;;;;;;;13.67;12.67;;;;;26.34;58.33;101156.56;1980763;28;3515992;-70
2023/08/19 05:01:23;;;;;;;;;13.33;12.00;;;;;26.35;58.40;101152.03;1982126;28;2809747;-69
2023/08/19 05:02:34;;;;;;;;;14.00;13.00;;;;;26.34;58.38;101156.56;1986892;28;2791986;-69
2023/08/19 05:03:46;;;;;;;;;15.80;14.40;;;;;26.34;58.29;101161.94;2003201;28;3535729;-69
2023/08/19 05:04:57;;;;;;;;;15.20;13.40;;;;;26.34;57.83;101161.09;2003766;28;3525226;-70
2023/08/19 05:06:09;;;;;;;;;12.00;12.00;;;;;26.34;58.40;101158.38;1995600;28;2800606;-70
2023/08/19 05:07:20;;;;;;;;;15.80;14.80;;;;;26.32;57.65;101155.84;1985577;28;3541853;-70
2023/08/19 05:08:32;;;;;;;;;12.40;11.80;;;;;26.32;58.18;101157.69;2011132;28;3513764;-70
2023/08/19 05:09:44;;;;;;;;;14.60;14.00;;;;;26.30;57.28;101161.38;2003077;28;3525682;-72
2023/08/19 05:10:56;;;;;;;;;15.00;12.40;;;;;26.31;57.44;101162.22;2005332;28;3509621;-72
2023/08/19 05:12:08;;;;;;;;;16.67;13.00;;;;;26.31;57.61;101164.91;1999863;28;2815944;-72
2023/08/19 05:13:18;;;;;;;;;11.00;11.00;;;;;26.30;57.81;101161.38;1997908;28;2784639;-73
2023/08/19 05:14:30;;;;;;;;;14.00;12.40;;;;;26.30;57.40;101160.50;1985163;28;2799272;-72
2023/08/19 05:15:41;;;;;;;;;14.00;13.33;;;;;26.32;57.90;101165.78;1988187;28;2802311;-73
2023/08/19 05:16:53;;;;;;;;;12.00;12.00;;;;;26.32;57.43;101163.06;1982109;28;2800283;-72
2023/08/19 05:18:04;;;;;;;;;11.00;11.00;;;;;26.32;57.31;101163.94;1983106;28;2781534;-72
2023/08/19 05:19:17;;;;;;;;;11.00;11.00;;;;;26.33;57.51;101170.16;1965500;28;2791977;-73
2023/08/19 05:20:27;;;;;;;;;11.00;11.00;;;;;26.33;57.39;101162.06;1986795;28;2793035;-72
2023/08/19 05:21:38;;;;;;;;;13.00;10.50;;;;;26.34;57.37;101171.84;1999634;28;2785754;-72
2023/08/19 05:22:49;;;;;;;;;10.50;10.50;;;;;26.35;57.71;101181.66;1978707;28;2787724;-72